createdAt,value
2022-12-29T00:01:40.178Z,1.60
2022-12-29T00:04:12.852Z,0.80
2022-12-29T00:06:41.538Z,0.90
2022-12-29T00:09:09.690Z,1.53
2022-12-29T00:11:36.079Z,0.87
2022-12-29T00:14:25.890Z,0.70
2022-12-29T00:16:52.654Z,0.90
2022-12-29T00:19:37.852Z,0.70
2022-12-29T00:22:22.520Z,0.70
2022-12-29T00:25:07.696Z,1.10
2022-12-29T00:27:52.460Z,0.80
2022-12-29T00:30:40.548Z,2.10
2022-12-29T00:33:32.625Z,2.00
2022-12-29T00:36:04.525Z,1.27
2022-12-29T00:38:52.324Z,0.80
2022-12-29T00:41:37.402Z,0.60
2022-12-29T00:44:06.727Z,2.40
2022-12-29T00:46:34.530Z,1.30
2022-12-29T00:49:20.536Z,0.60
2022-12-29T00:51:47.782Z,0.77
2022-12-29T00:54:15.054Z,0.70
2022-12-29T00:56:41.538Z,0.60
2022-12-29T00:59:10.560Z,0.80
2022-12-29T01:01:38.126Z,0.70
2022-12-29T01:04:05.535Z,0.57
2022-12-29T01:06:33.139Z,0.70
2022-12-29T01:09:18.298Z,0.97
2022-12-29T01:11:44.730Z,0.70
2022-12-29T01:14:11.112Z,0.70
2022-12-29T01:16:37.684Z,0.70
2022-12-29T01:19:04.628Z,0.60
2022-12-29T01:21:31.151Z,0.60
2022-12-29T01:23:57.533Z,0.60
2022-12-29T01:26:23.918Z,0.60
2022-12-29T01:28:50.270Z,0.50
2022-12-29T01:31:17.027Z,0.60
2022-12-29T01:33:44.923Z,0.50
2022-12-29T01:36:14.589Z,0.60
2022-12-29T01:38:42.048Z,0.60
2022-12-29T01:41:11.291Z,0.87
2022-12-29T01:43:48.068Z,1.70
2022-12-29T01:46:21.595Z,1.10
2022-12-29T01:48:52.552Z,0.60
2022-12-29T01:51:19.148Z,0.60
2022-12-29T01:53:46.272Z,0.53
2022-12-29T01:56:18.210Z,0.93
2022-12-29T01:58:49.766Z,0.60
2022-12-29T02:01:19.528Z,0.70
2022-12-29T02:03:46.246Z,1.37
2022-12-29T02:06:18.593Z,1.07
2022-12-29T02:08:47.930Z,0.70
2022-12-29T02:11:14.837Z,0.87
2022-12-29T02:13:41.208Z,0.70
2022-12-29T02:16:40.435Z,0.60
2022-12-29T02:19:09.822Z,0.50
2022-12-29T02:22:01.130Z,1.00
2022-12-29T02:24:52.472Z,0.60
2022-12-29T02:27:21.791Z,1.60
2022-12-29T02:30:18.537Z,0.80
2022-12-29T02:32:55.216Z,1.53
2022-12-29T02:35:36.725Z,1.03
2022-12-29T02:38:22.125Z,0.93
2022-12-29T02:41:03.472Z,0.90
2022-12-29T02:43:42.815Z,1.40
2022-12-29T02:46:24.624Z,1.90
2022-12-29T02:49:16.188Z,1.27
2022-12-29T02:51:59.463Z,3.53
2022-12-29T02:54:44.273Z,1.07
2022-12-29T02:57:22.727Z,1.37
2022-12-29T03:00:12.904Z,0.80
2022-12-29T03:03:03.844Z,0.80
2022-12-29T03:05:49.455Z,0.90
2022-12-29T03:08:35.891Z,1.37
2022-12-29T03:11:28.939Z,1.37
2022-12-29T03:14:24.589Z,1.30
2022-12-29T03:16:57.050Z,2.60
2022-12-29T03:19:32.068Z,1.10
2022-12-29T03:22:25.875Z,0.80
2022-12-29T03:24:55.507Z,1.30
2022-12-29T03:27:28.375Z,1.33
2022-12-29T03:30:00.614Z,0.87
2022-12-29T03:32:33.606Z,0.80
2022-12-29T03:35:01.513Z,1.23
2022-12-29T03:37:35.917Z,0.80
2022-12-29T03:40:02.973Z,0.70
2022-12-29T03:42:33.570Z,0.80
2022-12-29T03:45:00.075Z,0.93
2022-12-29T03:47:26.823Z,0.67
2022-12-29T03:49:53.807Z,1.30
2022-12-29T03:52:20.396Z,0.83
2022-12-29T03:54:47.159Z,1.07
2022-12-29T03:57:13.556Z,1.23
2022-12-29T03:59:40.780Z,0.90
2022-12-29T04:02:07.380Z,0.73
2022-12-29T04:04:33.898Z,0.80
2022-12-29T04:07:00.368Z,0.80
2022-12-29T04:09:26.699Z,1.60
2022-12-29T04:11:53.045Z,0.70
2022-12-29T04:14:19.478Z,0.83
2022-12-29T04:16:45.822Z,1.70
2022-12-29T04:19:12.254Z,0.60
2022-12-29T04:21:38.616Z,1.07
2022-12-29T04:24:07.640Z,1.23
2022-12-29T04:26:34.115Z,0.80
2022-12-29T04:29:00.580Z,0.90
2022-12-29T04:31:27.070Z,0.80
2022-12-29T04:33:53.467Z,1.00
2022-12-29T04:36:19.913Z,1.17
2022-12-29T04:38:46.308Z,0.70
2022-12-29T04:41:12.620Z,0.90
2022-12-29T04:43:38.985Z,2.07
2022-12-29T04:46:05.928Z,0.70
2022-12-29T04:48:32.350Z,0.97
2022-12-29T04:50:58.789Z,2.63
2022-12-29T04:53:25.171Z,0.60
2022-12-29T04:55:53.525Z,1.53
2022-12-29T04:58:23.190Z,2.20
2022-12-29T05:00:51.171Z,0.80
2022-12-29T05:03:17.766Z,0.90
2022-12-29T05:05:44.875Z,0.80
2022-12-29T05:08:11.507Z,0.70
2022-12-29T05:10:37.994Z,1.33
2022-12-29T05:13:04.446Z,0.87
2022-12-29T05:15:30.963Z,0.70
2022-12-29T05:17:57.397Z,1.50
2022-12-29T05:20:23.870Z,1.73
2022-12-29T05:22:50.390Z,0.97
2022-12-29T05:25:16.871Z,0.83
2022-12-29T05:27:43.861Z,1.50
2022-12-29T05:30:11.024Z,0.60
2022-12-29T05:32:37.423Z,0.70
2022-12-29T05:35:04.337Z,0.80
2022-12-29T05:37:30.794Z,0.60
2022-12-29T05:39:57.174Z,0.90
2022-12-29T05:42:23.758Z,2.37
2022-12-29T05:44:52.971Z,1.53
2022-12-29T05:47:19.333Z,0.90
2022-12-29T05:49:45.685Z,1.50
2022-12-29T05:52:12.031Z,0.70
2022-12-29T05:54:38.464Z,0.60
2022-12-29T05:57:04.866Z,0.53
2022-12-29T05:59:31.263Z,1.93
2022-12-29T06:01:57.801Z,0.63
2022-12-29T06:04:24.199Z,1.23
2022-12-29T06:06:50.613Z,0.70
2022-12-29T06:09:17.014Z,0.60
2022-12-29T06:11:43.944Z,0.83
2022-12-29T06:14:10.338Z,0.60
2022-12-29T06:16:37.274Z,0.80
2022-12-29T06:19:03.700Z,1.00
2022-12-29T06:21:30.203Z,1.57
2022-12-29T06:23:56.618Z,2.43
2022-12-29T06:26:23.106Z,0.70
2022-12-29T06:28:49.699Z,1.20
2022-12-29T06:31:16.202Z,1.17
2022-12-29T06:33:42.584Z,1.80
2022-12-29T06:36:09.083Z,0.60
2022-12-29T06:38:36.264Z,0.70
2022-12-29T06:41:02.733Z,1.13
2022-12-29T06:43:29.170Z,1.77
2022-12-29T06:45:55.613Z,0.93
2022-12-29T06:48:22.023Z,0.60
2022-12-29T06:50:48.424Z,2.07
2022-12-29T06:53:14.794Z,0.80
2022-12-29T06:55:42.898Z,0.83
2022-12-29T06:58:09.397Z,0.60
2022-12-29T07:00:35.733Z,1.63
2022-12-29T07:03:02.201Z,1.10
2022-12-29T07:05:28.798Z,1.30
2022-12-29T07:07:55.900Z,0.67
2022-12-29T07:10:22.795Z,2.30
2022-12-29T07:12:49.322Z,0.60
2022-12-29T07:15:15.824Z,0.87
2022-12-29T07:17:43.023Z,0.50
2022-12-29T07:20:10.234Z,1.03
2022-12-29T07:22:37.411Z,0.70
2022-12-29T07:25:04.340Z,0.70
2022-12-29T07:27:30.862Z,0.87
2022-12-29T07:29:57.244Z,1.13
2022-12-29T07:32:23.749Z,1.23
2022-12-29T07:34:50.169Z,1.17
2022-12-29T07:37:16.876Z,1.33
2022-12-29T07:39:44.031Z,0.80
2022-12-29T07:42:10.380Z,1.77
2022-12-29T07:44:37.570Z,1.20
2022-12-29T07:47:04.194Z,1.10
2022-12-29T07:49:30.818Z,0.87
2022-12-29T07:51:57.149Z,0.90
2022-12-29T07:54:24.337Z,1.03
2022-12-29T07:56:50.914Z,1.33
2022-12-29T07:59:17.420Z,1.50
2022-12-29T08:01:43.907Z,1.73
2022-12-29T08:04:10.359Z,2.33
2022-12-29T08:06:38.637Z,1.23
2022-12-29T08:09:12.446Z,1.00
2022-12-29T08:11:44.236Z,1.40
2022-12-29T08:14:10.679Z,2.60
2022-12-29T08:16:37.242Z,3.30
2022-12-29T08:19:05.885Z,2.23
2022-12-29T08:21:32.736Z,2.43
2022-12-29T08:23:59.964Z,3.47
2022-12-29T08:26:26.348Z,3.43
2022-12-29T08:28:56.682Z,3.00
2022-12-29T08:31:23.777Z,2.83
2022-12-29T08:33:50.394Z,1.97
2022-12-29T08:36:17.089Z,2.97
2022-12-29T08:38:44.688Z,4.03
2022-12-29T08:41:11.051Z,2.87
2022-12-29T08:43:37.470Z,4.07
2022-12-29T08:46:04.085Z,2.20
2022-12-29T08:48:30.569Z,5.40
2022-12-29T08:50:57.004Z,5.13
2022-12-29T08:53:23.570Z,2.90
2022-12-29T08:56:03.676Z,2.43
2022-12-29T08:58:31.737Z,2.13
2022-12-29T09:00:58.503Z,4.07
2022-12-29T09:03:45.904Z,2.43
2022-12-29T09:06:12.278Z,2.97
2022-12-29T09:08:38.657Z,2.37
2022-12-29T09:11:20.891Z,6.17
2022-12-29T09:13:47.835Z,5.67
2022-12-29T09:16:14.630Z,2.90
2022-12-29T09:18:41.258Z,3.57
2022-12-29T09:21:08.432Z,4.03
2022-12-29T09:23:35.179Z,2.17
2022-12-29T09:26:02.652Z,3.77
2022-12-29T09:28:30.099Z,5.50
2022-12-29T09:30:57.570Z,3.03
2022-12-29T09:33:24.868Z,3.07
2022-12-29T09:35:53.813Z,6.33
2022-12-29T09:38:21.142Z,2.60
2022-12-29T09:40:52.528Z,6.03
2022-12-29T09:43:24.890Z,7.93
2022-12-29T09:46:11.612Z,5.17
2022-12-29T09:48:45.360Z,8.07
2022-12-29T09:51:16.965Z,4.30
2022-12-29T09:53:56.225Z,5.20
2022-12-29T09:56:25.858Z,4.37
2022-12-29T09:59:06.939Z,4.97
2022-12-29T10:01:50.087Z,4.50
2022-12-29T10:04:16.557Z,3.10
2022-12-29T10:07:32.133Z,4.10
2022-12-29T10:10:03.543Z,7.13
2022-12-29T10:12:57.710Z,4.00
2022-12-29T10:15:44.948Z,4.43
2022-12-29T10:18:38.917Z,6.10
2022-12-29T10:21:14.033Z,4.67
2022-12-29T10:23:43.086Z,6.23
2022-12-29T10:26:15.983Z,5.00
2022-12-29T10:28:54.078Z,2.43
2022-12-29T10:31:26.104Z,4.30
2022-12-29T10:33:59.414Z,3.90
2022-12-29T10:36:39.495Z,4.83
2022-12-29T10:39:14.050Z,5.67
2022-12-29T10:41:49.621Z,5.20
2022-12-29T10:44:20.693Z,4.93
2022-12-29T10:46:58.356Z,4.10
2022-12-29T10:49:27.765Z,2.40
2022-12-29T10:51:58.127Z,4.07
2022-12-29T10:54:36.779Z,2.67
2022-12-29T10:57:10.368Z,5.93
2022-12-29T10:59:38.102Z,6.03
2022-12-29T11:02:10.818Z,5.03
2022-12-29T11:05:00.827Z,5.50
2022-12-29T11:07:27.893Z,3.73
2022-12-29T11:09:55.135Z,3.33
2022-12-29T11:12:30.159Z,5.73
2022-12-29T11:15:13.519Z,3.73
2022-12-29T11:18:00.305Z,5.17
2022-12-29T11:20:29.870Z,4.37
2022-12-29T11:22:56.819Z,3.80
2022-12-29T11:25:23.381Z,5.03
2022-12-29T11:28:05.226Z,3.07
2022-12-29T11:30:34.102Z,4.13
2022-12-29T11:33:04.359Z,6.47
2022-12-29T11:35:32.677Z,7.27
2022-12-29T11:38:00.728Z,3.40
2022-12-29T11:40:27.289Z,8.20
2022-12-29T11:42:57.831Z,5.63
2022-12-29T11:45:34.732Z,3.07
2022-12-29T11:48:10.068Z,3.93
2022-12-29T11:50:41.237Z,4.50
2022-12-29T11:53:27.710Z,5.33
2022-12-29T11:55:57.553Z,5.60
2022-12-29T11:58:37.350Z,5.63
2022-12-29T12:01:29.128Z,7.93
2022-12-29T12:04:04.799Z,5.90
2022-12-29T12:06:37.434Z,4.93
2022-12-29T12:09:11.294Z,5.80
2022-12-29T12:11:44.190Z,5.17
2022-12-29T12:14:19.037Z,6.93
2022-12-29T12:16:51.332Z,4.00
2022-12-29T12:19:25.345Z,3.67
2022-12-29T12:21:59.993Z,3.03
2022-12-29T12:24:42.862Z,3.40
2022-12-29T12:27:18.913Z,4.10
2022-12-29T12:30:00.757Z,2.50
2022-12-29T12:32:46.543Z,3.17
2022-12-29T12:35:21.504Z,5.67
2022-12-29T12:37:54.308Z,4.27
2022-12-29T12:40:36.560Z,2.40
2022-12-29T12:43:14.056Z,2.27
2022-12-29T12:45:58.642Z,7.10
2022-12-29T12:48:37.215Z,6.10
2022-12-29T12:51:30.331Z,5.17
2022-12-29T12:54:45.013Z,4.13
2022-12-29T12:57:37.678Z,6.03
2022-12-29T13:00:14.650Z,4.40
2022-12-29T13:03:03.663Z,5.13
2022-12-29T13:05:54.424Z,7.60
2022-12-29T13:08:58.317Z,3.30
2022-12-29T13:11:49.631Z,4.07
2022-12-29T13:14:34.381Z,4.17
2022-12-29T13:17:14.195Z,4.87
2022-12-29T13:20:05.875Z,7.90
2022-12-29T13:22:41.751Z,5.23
2022-12-29T13:25:30.267Z,5.77
2022-12-29T13:28:11.461Z,4.10
2022-12-29T13:30:55.155Z,3.87
2022-12-29T13:33:45.130Z,4.50
2022-12-29T13:36:24.839Z,4.17
2022-12-29T13:39:20.678Z,7.73
2022-12-29T13:41:52.099Z,7.00
2022-12-29T13:44:59.522Z,5.47
2022-12-29T13:47:40.295Z,4.77
2022-12-29T13:50:15.478Z,4.50
2022-12-29T13:53:04.161Z,4.13
2022-12-29T13:55:35.891Z,3.60
2022-12-29T13:58:23.098Z,5.07
2022-12-29T14:00:59.430Z,3.77
2022-12-29T14:03:51.873Z,6.63
2022-12-29T14:06:24.081Z,5.80
2022-12-29T14:08:56.850Z,6.30
2022-12-29T14:11:30.535Z,4.63
2022-12-29T14:13:57.351Z,6.13
2022-12-29T14:16:35.708Z,6.07
2022-12-29T14:19:17.837Z,3.33
2022-12-29T14:21:59.394Z,4.40
2022-12-29T14:24:41.613Z,5.77
2022-12-29T14:27:11.077Z,4.97
2022-12-29T14:29:40.381Z,4.63
2022-12-29T14:32:22.204Z,6.73
2022-12-29T14:34:52.592Z,5.00
2022-12-29T14:37:29.532Z,7.13
2022-12-29T14:40:19.150Z,3.43
2022-12-29T14:42:50.313Z,4.10
2022-12-29T14:45:17.636Z,4.70
2022-12-29T14:47:46.953Z,3.87
2022-12-29T14:50:39.710Z,4.00
2022-12-29T14:53:07.345Z,5.33
2022-12-29T14:55:45.224Z,5.17
2022-12-29T14:58:28.758Z,3.83
2022-12-29T15:00:56.201Z,4.93
2022-12-29T15:03:46.116Z,4.97
2022-12-29T15:06:17.986Z,4.10
2022-12-29T15:09:07.285Z,4.53
2022-12-29T15:11:36.645Z,4.67
2022-12-29T15:14:03.357Z,8.00
2022-12-29T15:16:37.671Z,3.10
2022-12-29T15:19:06.140Z,4.43
2022-12-29T15:21:37.072Z,6.23
2022-12-29T15:24:04.940Z,5.90
2022-12-29T15:26:43.575Z,4.33
2022-12-29T15:29:36.399Z,6.40
2022-12-29T15:32:22.045Z,4.83
2022-12-29T15:34:52.039Z,8.53
2022-12-29T15:37:33.269Z,8.33
2022-12-29T15:39:59.814Z,3.57
2022-12-29T15:42:50.985Z,6.93
2022-12-29T15:45:17.593Z,6.10
2022-12-29T15:47:49.634Z,4.23
2022-12-29T15:50:32.522Z,5.90
2022-12-29T15:53:00.035Z,3.43
2022-12-29T15:55:39.087Z,3.90
2022-12-29T15:58:18.707Z,4.80
2022-12-29T16:00:50.291Z,7.40
2022-12-29T16:03:17.406Z,4.43
2022-12-29T16:05:52.471Z,6.47
2022-12-29T16:08:25.131Z,6.97
2022-12-29T16:10:51.978Z,6.90
2022-12-29T16:13:27.884Z,10.50
2022-12-29T16:16:02.398Z,4.23
2022-12-29T16:18:33.914Z,7.87
2022-12-29T16:21:00.830Z,4.73
2022-12-29T16:23:29.571Z,6.20
2022-12-29T16:25:58.672Z,6.73
2022-12-29T16:28:35.718Z,7.60
2022-12-29T16:31:07.549Z,4.43
2022-12-29T16:33:55.106Z,6.00
2022-12-29T16:36:25.458Z,9.33
2022-12-29T16:39:03.616Z,4.60
2022-12-29T16:41:31.372Z,5.07
2022-12-29T16:44:17.227Z,6.30
2022-12-29T16:47:05.612Z,4.30
2022-12-29T16:49:34.126Z,4.73
2022-12-29T16:52:00.841Z,5.07
2022-12-29T16:54:37.120Z,7.43
2022-12-29T16:57:04.864Z,8.13
2022-12-29T16:59:43.429Z,4.40
2022-12-29T17:02:20.713Z,7.10
2022-12-29T17:04:49.504Z,5.30
2022-12-29T17:07:24.861Z,5.67
2022-12-29T17:09:53.978Z,5.87
2022-12-29T17:12:30.609Z,7.43
2022-12-29T17:15:01.029Z,8.40
2022-12-29T17:17:36.465Z,5.80
2022-12-29T17:20:07.128Z,7.27
2022-12-29T17:22:33.999Z,9.40
2022-12-29T17:25:02.909Z,4.40
2022-12-29T17:27:37.658Z,3.97
2022-12-29T17:30:34.790Z,4.63
2022-12-29T17:33:05.368Z,10.27
2022-12-29T17:35:31.903Z,5.77
2022-12-29T17:37:58.236Z,8.07
2022-12-29T17:40:28.449Z,6.20
2022-12-29T17:42:58.046Z,12.17
2022-12-29T17:45:30.430Z,6.20
2022-12-29T17:48:01.363Z,6.17
2022-12-29T17:50:30.261Z,4.93
2022-12-29T17:53:01.182Z,7.73
2022-12-29T17:55:34.790Z,7.63
2022-12-29T17:58:21.494Z,8.30
2022-12-29T18:00:52.420Z,5.90
2022-12-29T18:03:23.397Z,7.50
2022-12-29T18:05:50.289Z,7.27
2022-12-29T18:08:16.924Z,6.57
2022-12-29T18:10:43.864Z,6.03
2022-12-29T18:13:24.359Z,10.63
2022-12-29T18:15:51.982Z,6.27
2022-12-29T18:18:21.316Z,9.83
2022-12-29T18:20:49.091Z,3.73
2022-12-29T18:23:21.003Z,10.30
2022-12-29T18:25:53.310Z,9.43
2022-12-29T18:28:19.872Z,9.80
2022-12-29T18:30:46.687Z,10.80
2022-12-29T18:33:22.621Z,10.70
2022-12-29T18:35:55.675Z,8.50
2022-12-29T18:38:22.024Z,8.97
2022-12-29T18:40:49.367Z,7.67
2022-12-29T18:43:18.065Z,8.37
2022-12-29T18:45:45.996Z,8.23
2022-12-29T18:48:13.652Z,10.17
2022-12-29T18:50:40.325Z,9.77
2022-12-29T18:53:06.737Z,7.07
2022-12-29T18:55:33.335Z,10.30
2022-12-29T18:57:59.717Z,10.47
2022-12-29T19:00:26.215Z,8.70
2022-12-29T19:02:52.771Z,6.67
2022-12-29T19:05:26.425Z,6.30
2022-12-29T19:07:53.347Z,8.67
2022-12-29T19:10:22.247Z,10.57
2022-12-29T19:12:50.597Z,9.10
2022-12-29T19:15:32.287Z,9.37
2022-12-29T19:20:49.479Z,8.30
2022-12-29T19:23:18.999Z,9.17
2022-12-29T19:25:46.315Z,7.90
2022-12-29T19:28:18.355Z,6.10
2022-12-29T19:30:51.072Z,8.13
2022-12-29T19:33:19.080Z,10.53
2022-12-29T19:35:45.493Z,6.40
2022-12-29T19:38:13.497Z,7.10
2022-12-29T19:40:48.802Z,9.43
2022-12-29T19:43:15.557Z,8.27
2022-12-29T19:45:44.210Z,6.23
2022-12-29T19:48:16.943Z,10.40
2022-12-29T19:50:44.041Z,9.00
2022-12-29T19:53:11.335Z,8.53
2022-12-29T19:55:41.153Z,6.20
2022-12-29T19:58:07.495Z,6.77
2022-12-29T20:00:33.913Z,7.13
2022-12-29T20:03:00.427Z,6.57
2022-12-29T20:05:26.962Z,10.10
2022-12-29T20:07:53.519Z,8.50
2022-12-29T20:10:19.970Z,5.83
2022-12-29T20:12:46.355Z,9.97
2022-12-29T20:15:15.022Z,7.10
2022-12-29T20:20:27.878Z,8.87
2022-12-29T20:22:54.215Z,4.83
2022-12-29T20:28:08.546Z,7.57
2022-12-29T20:30:35.181Z,7.60
2022-12-29T20:33:07.610Z,8.60
2022-12-29T20:35:34.808Z,8.47
2022-12-29T20:38:01.139Z,8.80
2022-12-29T20:40:27.717Z,7.70
2022-12-29T20:42:54.438Z,8.70
2022-12-29T20:45:20.847Z,11.23
2022-12-29T20:47:47.386Z,9.97
2022-12-29T20:50:15.120Z,6.27
2022-12-29T20:52:41.778Z,8.50
2022-12-29T20:55:08.389Z,10.70
2022-12-29T20:57:57.051Z,6.10
2022-12-29T21:00:22.703Z,7.60
2022-12-29T21:02:49.718Z,8.97
2022-12-29T21:05:24.847Z,9.57
2022-12-29T21:07:53.357Z,9.00
2022-12-29T21:10:20.239Z,8.17
2022-12-29T21:12:47.688Z,12.57
2022-12-29T21:15:15.452Z,7.13
2022-12-29T21:17:43.354Z,10.33
2022-12-29T21:20:19.838Z,11.27
2022-12-29T21:22:47.457Z,9.63
2022-12-29T21:25:14.251Z,7.23
2022-12-29T21:27:46.791Z,7.73
2022-12-29T21:30:13.831Z,10.30
2022-12-29T21:32:41.388Z,10.43
2022-12-29T21:35:09.087Z,6.00
2022-12-29T21:37:36.356Z,16.13
2022-12-29T21:40:04.511Z,9.97
2022-12-29T21:42:30.960Z,7.57
2022-12-29T21:45:20.398Z,6.13
2022-12-29T21:48:06.742Z,9.10
2022-12-29T21:50:33.419Z,10.07
2022-12-29T21:52:59.863Z,15.00
2022-12-29T21:55:26.224Z,11.70
2022-12-29T21:58:11.341Z,8.93
2022-12-29T22:00:56.195Z,10.67
2022-12-29T22:03:41.300Z,9.60
2022-12-29T22:06:29.744Z,7.83
2022-12-29T22:09:14.667Z,17.07
2022-12-29T22:11:59.743Z,9.50
2022-12-29T22:14:26.118Z,10.10
2022-12-29T22:16:52.632Z,9.30
2022-12-29T22:19:19.296Z,8.43
2022-12-29T22:21:45.737Z,10.23
2022-12-29T22:24:12.126Z,6.63
2022-12-29T22:26:38.541Z,10.93
2022-12-29T22:29:04.988Z,9.50
2022-12-29T22:31:32.894Z,9.03
2022-12-29T22:34:04.580Z,16.83
2022-12-29T22:36:32.281Z,13.60
2022-12-29T22:38:58.765Z,10.80
2022-12-29T22:41:25.427Z,12.70
2022-12-29T22:43:51.911Z,8.17
2022-12-29T22:46:18.615Z,9.80
2022-12-29T22:48:45.153Z,10.47
2022-12-29T22:51:11.809Z,11.67
2022-12-29T22:53:38.261Z,8.97
2022-12-29T22:56:10.423Z,8.70
2022-12-29T22:58:41.034Z,11.53
2022-12-29T23:01:07.917Z,9.43
2022-12-29T23:03:34.508Z,6.77
2022-12-29T23:06:03.630Z,9.30
2022-12-29T23:08:33.559Z,8.97
2022-12-29T23:11:00.113Z,12.43
2022-12-29T23:13:26.716Z,9.47
2022-12-29T23:15:53.187Z,10.60
2022-12-29T23:18:19.555Z,11.33
2022-12-29T23:20:48.568Z,9.77
2022-12-29T23:23:35.980Z,8.77
2022-12-29T23:26:03.076Z,8.50
2022-12-29T23:28:29.438Z,14.40
2022-12-29T23:30:55.826Z,9.60
2022-12-29T23:33:22.604Z,14.83
2022-12-29T23:35:48.979Z,8.77
2022-12-29T23:38:15.518Z,6.27
2022-12-29T23:40:41.964Z,10.13
2022-12-29T23:43:08.309Z,7.10
2022-12-29T23:45:38.887Z,9.03
2022-12-29T23:48:06.025Z,10.83
2022-12-29T23:50:33.282Z,16.13
2022-12-29T23:52:59.704Z,11.60
2022-12-29T23:55:26.115Z,9.57
2022-12-29T23:57:52.618Z,12.23
